Time;durP1;ratioP1;P1;durP2;ratioP2;P2;SDS_P1;SDS_P2;PMS_P1;PMS_P2;Temp;Humidity;BMP_temperature;BMP_pressure;BME280_temperature;BME280_humidity;BME280_pressure;Samples;Min_cycle;Max_cycle;Signal;HPM_P1;HPM_P2
2022/03/03 00:01:19;;;;;;;23.37;10.57;;;;;;;-2.00;78.59;98913.59;4972740;28;20191;-63
2022/03/03 00:03:46;;;;;;;23.13;10.93;;;;;;;-1.90;79.34;98908.91;4972667;28;20210;-63
2022/03/03 00:06:15;;;;;;;21.87;10.70;;;;;;;-1.98;79.25;98906.69;4971819;28;20274;-63
2022/03/03 00:08:41;;;;;;;24.90;10.43;;;;;;;-2.03;78.95;98904.31;4971886;28;20203;-63
2022/03/03 00:11:08;;;;;;;20.70;10.13;;;;;;;-2.05;78.78;98903.53;4972887;28;20658;-63
2022/03/03 00:13:35;;;;;;;21.67;10.87;;;;;;;-2.07;78.36;98913.00;4972079;28;20214;-63
2022/03/03 00:16:03;;;;;;;23.73;11.37;;;;;;;-2.08;78.28;98904.50;4972040;28;20697;-63
2022/03/03 00:18:30;;;;;;;25.57;12.13;;;;;;;-1.98;79.40;98906.69;4972892;28;20232;-63
2022/03/03 00:20:56;;;;;;;23.03;11.03;;;;;;;-2.03;79.46;98909.41;4972726;28;20195;-63
2022/03/03 00:23:24;;;;;;;21.13;10.97;;;;;;;-2.03;78.79;98916.28;4972053;28;20209;-63
2022/03/03 00:25:51;;;;;;;26.17;11.27;;;;;;;-1.98;78.13;98909.25;4971713;28;20191;-63
2022/03/03 00:28:18;;;;;;;24.90;12.10;;;;;;;-1.94;78.37;98909.03;4971550;28;20221;-63
2022/03/03 00:30:44;;;;;;;25.27;11.90;;;;;;;-2.03;79.21;98909.41;4972473;28;20218;-64
2022/03/03 00:33:12;;;;;;;20.73;11.17;;;;;;;-2.08;79.11;98907.06;4972110;28;20226;-64
2022/03/03 00:35:39;;;;;;;24.00;11.67;;;;;;;-2.09;79.42;98907.97;4971974;28;20207;-63
2022/03/03 00:38:06;;;;;;;21.37;11.13;;;;;;;-2.10;79.61;98906.28;4971979;28;20738;-64
2022/03/03 00:40:34;;;;;;;22.57;11.07;;;;;;;-2.11;79.66;98901.22;4972041;28;20245;-63
2022/03/03 00:43:01;;;;;;;24.47;11.50;;;;;;;-2.11;79.61;98906.34;4971882;28;20207;-63
2022/03/03 00:45:28;;;;;;;25.00;11.77;;;;;;;-2.10;79.28;98906.28;4971671;28;20190;-63
2022/03/03 00:47:54;;;;;;;22.70;11.90;;;;;;;-2.20;80.01;98899.91;4972184;28;20197;-63
2022/03/03 00:50:21;;;;;;;24.07;12.27;;;;;;;-2.20;80.74;98907.56;4971878;28;20190;-63
2022/03/03 00:52:48;;;;;;;24.70;11.67;;;;;;;-2.24;81.15;98899.22;4971414;28;20206;-63
2022/03/03 00:55:14;;;;;;;27.80;12.47;;;;;;;-2.08;82.17;98898.53;4971388;28;20194;-63
2022/03/03 00:57:43;;;;;;;26.23;12.93;;;;;;;-2.10;82.02;98896.06;4971736;28;20544;-63
2022/03/03 01:00:10;;;;;;;29.37;12.63;;;;;;;-2.13;81.73;98898.75;4971913;28;20190;-64
2022/03/03 01:02:37;;;;;;;25.57;13.50;;;;;;;-2.12;81.59;98894.47;4970132;28;20302;-63
2022/03/03 01:05:05;;;;;;;25.90;13.53;;;;;;;-2.13;82.33;98900.50;4971567;28;20206;-63
2022/03/03 01:07:33;;;;;;;28.60;13.90;;;;;;;-2.14;81.76;98897.09;4970590;28;20209;-63
2022/03/03 01:10:00;;;;;;;25.57;12.83;;;;;;;-2.19;82.02;98895.63;4971384;28;20249;-63
2022/03/03 01:12:27;;;;;;;26.13;13.33;;;;;;;-2.04;82.08;98896.69;4971417;28;20210;-63
2022/03/03 01:14:55;;;;;;;28.57;12.60;;;;;;;-2.10;81.79;98897.78;4970881;28;20593;-63
2022/03/03 01:17:21;;;;;;;26.47;12.50;;;;;;;-2.02;81.04;98897.47;4971654;28;20707;-63
2022/03/03 01:19:48;;;;;;;26.00;12.33;;;;;;;-1.96;80.87;98902.34;4970410;28;20202;-63
2022/03/03 01:22:16;;;;;;;25.30;12.03;;;;;;;-2.11;81.09;98902.06;4971054;28;20215;-63
2022/03/03 01:24:43;;;;;;;27.57;12.73;;;;;;;-2.12;81.46;98902.97;4971196;28;20195;-63
2022/03/03 01:27:10;;;;;;;24.07;12.30;;;;;;;-2.15;81.26;98902.28;4971368;28;20844;-63
2022/03/03 01:29:36;;;;;;;24.33;11.47;;;;;;;-2.17;80.92;98901.50;4971529;28;20562;-62
2022/03/03 01:32:06;;;;;;;24.53;10.87;;;;;;;-2.25;81.13;98900.09;4971392;28;20712;-63
2022/03/03 01:34:32;;;;;;;26.37;12.17;;;;;;;-2.22;81.21;98896.56;4970800;28;20198;-63
2022/03/03 01:36:59;;;;;;;23.83;11.40;;;;;;;-2.28;82.02;98895.09;4970010;28;20287;-63
2022/03/03 01:39:26;;;;;;;22.73;11.17;;;;;;;-2.24;82.97;98883.00;4970880;28;20191;-63
2022/03/03 01:41:53;;;;;;;24.50;11.60;;;;;;;-2.30;82.53;98893.50;4971105;28;20201;-63
2022/03/03 01:44:19;;;;;;;23.40;11.33;;;;;;;-2.33;83.05;98888.50;4970859;28;20599;-63
2022/03/03 01:46:50;;;;;;;25.90;12.00;;;;;;;-2.28;83.07;98873.81;4971406;28;20181;-63
2022/03/03 01:49:18;;;;;;;23.80;11.77;;;;;;;-2.14;82.72;98873.25;4971206;28;20190;-61
2022/03/03 01:51:45;;;;;;;27.27;12.53;;;;;;;-2.18;82.24;98872.53;4964021;28;20689;-62
2022/03/03 01:54:12;;;;;;;24.23;11.50;;;;;;;-2.12;82.00;98863.78;4949578;28;20543;-62
2022/03/03 01:56:40;;;;;;;25.67;12.27;;;;;;;-2.17;82.53;98866.53;4952100;28;20757;-62
2022/03/03 01:59:08;;;;;;;23.40;12.13;;;;;;;-2.20;82.87;98855.59;4970211;28;20224;-62
2022/03/03 02:01:36;;;;;;;29.63;13.87;;;;;;;-2.17;83.32;98858.84;4971544;28;20190;-62
2022/03/03 02:04:06;;;;;;;23.80;11.77;;;;;;;-2.17;83.50;98860.59;4970844;28;20223;-62
2022/03/03 02:06:35;;;;;;;28.47;12.60;;;;;;;-2.21;83.06;98861.63;4971402;28;20201;-61
2022/03/03 02:09:02;;;;;;;26.93;11.53;;;;;;;-2.13;81.85;98857.81;4971442;28;20679;-61
2022/03/03 02:11:31;;;;;;;23.30;10.73;;;;;;;-2.14;81.99;98855.34;4971344;28;20182;-61
2022/03/03 02:13:58;;;;;;;22.83;10.83;;;;;;;-2.17;80.68;98850.34;4970725;28;20877;-61
2022/03/03 02:16:25;;;;;;;23.90;11.03;;;;;;;-2.20;81.40;98848.75;4971317;28;20205;-61
2022/03/03 02:18:52;;;;;;;24.17;11.50;;;;;;;-2.15;81.41;98851.13;4971401;28;20244;-62
2022/03/03 02:21:20;;;;;;;20.60;10.40;;;;;;;-2.27;81.83;98845.63;4971534;28;20194;-62
2022/03/03 02:23:47;;;;;;;25.90;11.43;;;;;;;-2.32;82.41;98851.81;4971290;28;20215;-63
2022/03/03 02:26:19;;;;;;;20.73;11.43;;;;;;;-2.34;82.00;98846.78;4970744;28;20190;-61
2022/03/03 02:28:46;;;;;;;25.00;11.03;;;;;;;-2.35;82.49;98845.13;4971344;28;20190;-61
2022/03/03 02:31:13;;;;;;;30.73;11.53;;;;;;;-2.34;82.26;98839.09;4971365;28;20181;-61
2022/03/03 02:33:40;;;;;;;23.13;11.67;;;;;;;-2.35;81.87;98837.44;4970864;28;20210;-61
2022/03/03 02:36:18;;;;;;;29.13;11.80;;;;;;;-2.38;82.42;98840.13;4968266;28;20214;-61
2022/03/03 02:38:47;;;;;;;28.47;12.00;;;;;;;-2.37;82.48;98854.56;4968841;28;20284;-61
2022/03/03 02:41:14;;;;;;;21.90;10.63;;;;;;;-2.45;82.58;98849.75;4967882;28;20238;-61
2022/03/03 02:43:42;;;;;;;25.57;11.57;;;;;;;-2.38;84.00;98850.34;4968832;28;20300;-61
2022/03/03 02:46:09;;;;;;;23.43;11.57;;;;;;;-2.48;83.77;98847.31;4963088;28;20667;-61
2022/03/03 02:48:36;;;;;;;22.27;10.73;;;;;;;-2.49;83.95;98845.66;4960489;28;20204;-61
2022/03/03 02:51:03;;;;;;;24.20;11.43;;;;;;;-2.46;84.11;98845.53;4960747;28;20188;-61
2022/03/03 02:53:31;;;;;;;24.37;11.37;;;;;;;-2.21;82.11;98843.72;4962016;28;20586;-61
2022/03/03 02:55:59;;;;;;;24.47;11.73;;;;;;;-2.28;82.57;98851.63;4963272;28;20619;-61
2022/03/03 02:58:25;;;;;;;23.80;11.03;;;;;;;-2.35;82.53;98847.69;4966595;28;20204;-61
2022/03/03 03:00:56;;;;;;;22.17;11.40;;;;;;;-2.33;81.48;98843.31;4964475;28;20269;-61
2022/03/03 03:03:24;;;;;;;24.10;11.10;;;;;;;-2.37;83.26;98837.50;4963482;28;20710;-61
2022/03/03 03:05:51;;;;;;;24.70;10.77;;;;;;;-2.45;83.10;98842.09;4964045;28;20189;-61
2022/03/03 03:08:18;;;;;;;25.17;11.70;;;;;;;-2.50;83.07;98844.00;4963211;28;20191;-61
2022/03/03 03:10:45;;;;;;;24.83;12.03;;;;;;;-2.53;83.87;98847.53;4962455;28;20194;-61
2022/03/03 03:13:14;;;;;;;23.87;10.73;;;;;;;-2.53;84.20;98842.41;4962515;28;20217;-61
2022/03/03 03:15:43;;;;;;;25.13;11.57;;;;;;;-2.52;84.33;98853.47;4961118;28;20559;-61
2022/03/03 03:18:11;;;;;;;23.27;11.30;;;;;;;-2.53;84.61;98842.41;4963734;28;20727;-61
2022/03/03 03:20:38;;;;;;;27.20;11.80;;;;;;;-2.59;84.46;98836.72;4963001;28;20187;-61
2022/03/03 03:23:05;;;;;;;22.03;10.67;;;;;;;-2.67;84.56;98829.38;4962413;28;20202;-61
2022/03/03 03:25:32;;;;;;;22.73;11.53;;;;;;;-2.49;85.72;98832.06;4961789;28;20265;-61
2022/03/03 03:27:58;;;;;;;25.43;12.30;;;;;;;-2.59;85.43;98821.38;4962946;28;20217;-61
2022/03/03 03:30:26;;;;;;;21.30;10.77;;;;;;;-2.66;85.62;98810.59;4964129;28;20718;-61
2022/03/03 03:32:54;;;;;;;26.00;12.17;;;;;;;-2.72;86.11;98816.78;4963293;28;20218;-61
2022/03/03 03:35:21;;;;;;;22.50;10.77;;;;;;;-2.73;86.18;98814.28;4962396;28;20194;-61
2022/03/03 03:37:48;;;;;;;23.27;11.53;;;;;;;-2.77;86.93;98813.59;4961439;28;20221;-61
2022/03/03 03:40:14;;;;;;;26.63;11.80;;;;;;;-2.77;87.42;98810.19;4963317;28;20704;-61
2022/03/03 03:42:41;;;;;;;23.10;12.47;;;;;;;-2.77;87.13;98803.38;4962825;28;20217;-61
2022/03/03 03:45:10;;;;;;;26.70;11.77;;;;;;;-2.72;85.80;98810.84;4960910;28;20195;-61
2022/03/03 03:47:38;;;;;;;23.07;11.63;;;;;;;-2.71;86.53;98809.94;4963186;28;20190;-61
2022/03/03 03:50:08;;;;;;;27.93;12.20;;;;;;;-2.69;86.40;98818.38;4963662;28;20190;-61
2022/03/03 03:52:35;;;;;;;25.43;11.63;;;;;;;-2.76;87.05;98811.84;4963525;28;20229;-61
2022/03/03 03:55:03;;;;;;;22.17;11.57;;;;;;;-2.80;87.51;98815.41;4962905;28;20204;-61
2022/03/03 03:57:30;;;;;;;25.23;11.50;;;;;;;-2.87;87.57;98815.66;4963689;28;20210;-61
2022/03/03 03:59:56;;;;;;;26.63;12.57;;;;;;;-2.86;87.10;98813.97;4963209;28;20201;-61
2022/03/03 04:02:23;;;;;;;27.73;13.17;;;;;;;-2.83;87.47;98814.66;4962674;28;20224;-61
2022/03/03 04:04:51;;;;;;;28.33;12.33;;;;;;;-2.89;87.82;98812.34;4961123;28;20195;-62
2022/03/03 04:07:19;;;;;;;29.17;13.10;;;;;;;-2.86;87.89;98824.19;4968608;28;20202;-61
2022/03/03 04:09:45;;;;;;;23.03;11.73;;;;;;;-2.90;87.36;98813.22;4968348;28;20202;-61
2022/03/03 04:12:12;;;;;;;25.47;13.40;;;;;;;-2.93;87.70;98809.97;4968581;28;20214;-61
2022/03/03 04:14:39;;;;;;;25.03;12.13;;;;;;;-2.93;87.33;98807.44;4963924;28;20187;-61
2022/03/03 04:17:07;;;;;;;28.83;12.93;;;;;;;-2.94;86.80;98808.31;4963263;28;20305;-61
2022/03/03 04:19:33;;;;;;;29.87;13.50;;;;;;;-2.83;87.01;98806.19;4961858;28;20198;-61
2022/03/03 04:22:02;;;;;;;27.73;12.53;;;;;;;-2.79;87.42;98802.59;4961901;28;20191;-61
2022/03/03 04:24:28;;;;;;;33.43;13.33;;;;;;;-2.88;87.59;98801.22;4962863;28;20191;-61
2022/03/03 04:26:56;;;;;;;28.90;12.53;;;;;;;-2.94;87.19;98796.38;4961685;28;20191;-62
2022/03/03 04:29:23;;;;;;;26.87;12.80;;;;;;;-3.00;87.25;98789.78;4961856;28;20198;-61
2022/03/03 04:31:51;;;;;;;28.43;12.90;;;;;;;-2.94;88.16;98791.25;4963007;28;20673;-61
2022/03/03 04:34:19;;;;;;;27.13;12.17;;;;;;;-2.86;87.75;98791.78;4961805;28;20207;-61
2022/03/03 04:36:46;;;;;;;27.47;12.30;;;;;;;-2.83;88.78;98785.72;4960110;28;20236;-62
2022/03/03 04:39:14;;;;;;;25.23;12.53;;;;;;;-2.83;88.29;98794.22;4963139;28;20211;-62
2022/03/03 04:41:41;;;;;;;25.80;12.57;;;;;;;-2.94;87.81;98793.00;4962176;28;20195;-62
2022/03/03 04:44:08;;;;;;;29.37;12.53;;;;;;;-2.95;88.57;98787.03;4960381;28;20622;-62
2022/03/03 04:46:35;;;;;;;24.27;12.97;;;;;;;-3.01;88.03;98777.91;4962743;28;20217;-62
2022/03/03 04:49:02;;;;;;;31.20;13.23;;;;;;;-2.89;88.57;98784.25;4962409;28;20193;-62
2022/03/03 04:51:29;;;;;;;27.60;12.63;;;;;;;-2.80;88.35;98784.75;4960879;28;20190;-62
2022/03/03 04:53:56;;;;;;;30.83;13.43;;;;;;;-2.86;88.22;98784.13;4961305;28;20221;-62
2022/03/03 04:56:24;;;;;;;27.20;12.53;;;;;;;-2.86;87.52;98773.91;4964208;28;20198;-62
2022/03/03 04:58:51;;;;;;;45.83;17.07;;;;;;;-2.87;88.43;98777.34;4965915;28;20702;-62
2022/03/03 05:01:17;;;;;;;39.90;15.57;;;;;;;-2.73;87.88;98773.41;4971044;28;20209;-62
2022/03/03 05:03:44;;;;;;;28.83;13.13;;;;;;;-2.76;88.65;98771.81;4963065;28;20217;-62
2022/03/03 05:06:11;;;;;;;27.40;13.43;;;;;;;-2.85;89.46;98777.31;4961606;28;20201;-62
2022/03/03 05:08:38;;;;;;;40.97;16.57;;;;;;;-2.89;89.60;98783.44;4960551;28;20195;-62
2022/03/03 05:11:05;;;;;;;28.33;13.07;;;;;;;-2.80;89.07;98785.63;4962601;28;20717;-62
2022/03/03 05:13:32;;;;;;;27.40;13.23;;;;;;;-2.82;88.73;98783.09;4964585;28;20219;-62
2022/03/03 05:15:59;;;;;;;25.90;12.97;;;;;;;-2.84;88.20;98782.34;4969958;28;20200;-62
2022/03/03 05:18:26;;;;;;;28.43;13.23;;;;;;;-2.72;88.35;98787.84;4965460;28;20224;-62
2022/03/03 05:20:53;;;;;;;29.50;12.47;;;;;;;-2.85;88.48;98788.34;4960990;28;20574;-62
2022/03/03 05:23:20;;;;;;;26.57;12.83;;;;;;;-2.90;88.62;98780.03;4962176;28;20222;-62
2022/03/03 05:25:46;;;;;;;33.70;13.83;;;;;;;-2.85;89.56;98780.66;4960420;28;20194;-62
2022/03/03 05:28:13;;;;;;;28.47;14.67;;;;;;;-2.87;89.44;98768.88;4961167;28;20181;-62
2022/03/03 05:30:41;;;;;;;31.37;14.90;;;;;;;-2.94;89.78;98770.81;4962216;28;20194;-62
2022/03/03 05:33:08;;;;;;;39.43;16.77;;;;;;;-2.84;89.71;98768.75;4960621;28;20206;-62
2022/03/03 05:35:35;;;;;;;37.23;17.63;;;;;;;-2.81;89.41;98766.06;4960049;28;20182;-62
2022/03/03 05:38:03;;;;;;;39.07;18.33;;;;;;;-2.83;89.34;98765.28;4962184;28;20213;-62
2022/03/03 05:40:31;;;;;;;37.47;17.00;;;;;;;-2.84;89.16;98767.00;4961542;28;20188;-62
2022/03/03 05:42:57;;;;;;;34.20;16.47;;;;;;;-2.89;89.10;98761.25;4959750;28;20201;-62
2022/03/03 05:45:24;;;;;;;31.60;16.23;;;;;;;-2.95;89.75;98758.94;4966575;28;20190;-62
2022/03/03 05:47:53;;;;;;;32.07;16.63;;;;;;;-3.03;90.21;98756.72;4969077;28;20295;-62
2022/03/03 05:50:20;;;;;;;34.37;16.30;;;;;;;-2.98;90.36;98764.19;4969613;28;20282;-62
2022/03/03 05:52:47;;;;;;;37.17;17.27;;;;;;;-2.97;90.24;98763.28;4963724;28;20234;-62
2022/03/03 05:55:14;;;;;;;35.40;15.83;;;;;;;-2.93;90.22;98771.66;4960998;28;20191;-62
2022/03/03 05:57:44;;;;;;;32.23;16.13;;;;;;;-2.94;89.95;98767.44;4962082;28;20639;-62
2022/03/03 06:00:13;;;;;;;31.93;15.73;;;;;;;-3.03;90.08;98766.94;4961020;28;20179;-62
2022/03/03 06:02:45;;;;;;;29.10;14.63;;;;;;;-3.05;89.66;98767.88;4961338;28;20664;-62
2022/03/03 06:05:13;;;;;;;27.53;14.13;;;;;;;-3.03;89.74;98763.53;4960894;28;20190;-61
2022/03/03 06:07:45;;;;;;;33.07;15.03;;;;;;;-2.98;89.89;98765.03;4960019;28;20195;-62
2022/03/03 06:10:16;;;;;;;30.33;13.43;;;;;;;-2.91;89.97;98768.16;4960797;28;20233;-62
2022/03/03 06:12:51;;;;;;;28.87;14.00;;;;;;;-2.97;90.18;98766.69;4961437;28;20213;-62
2022/03/03 06:15:22;;;;;;;27.80;13.93;;;;;;;-3.05;90.08;98765.31;4961244;28;20194;-62
2022/03/03 06:17:50;;;;;;;34.43;14.33;;;;;;;-3.06;89.99;98763.66;4960415;28;20214;-62
2022/03/03 06:20:19;;;;;;;30.73;13.70;;;;;;;-3.06;89.66;98761.94;4960038;28;20194;-62
2022/03/03 06:22:46;;;;;;;26.03;13.27;;;;;;;-3.07;89.87;98767.94;4961402;28;20218;-62
2022/03/03 06:25:13;;;;;;;28.70;13.27;;;;;;;-3.07;90.26;98765.38;4961022;28;20219;-62
2022/03/03 06:27:40;;;;;;;46.80;19.93;;;;;;;-3.01;90.63;98765.16;4963043;28;20186;-62
2022/03/03 06:30:08;;;;;;;47.47;21.00;;;;;;;-2.93;90.75;98761.44;4964828;28;20662;-62
2022/03/03 06:32:35;;;;;;;37.37;17.60;;;;;;;-2.85;89.68;98754.31;4964517;28;20692;-62
2022/03/03 06:35:03;;;;;;;32.37;15.60;;;;;;;-2.82;89.72;98747.34;4968323;28;20289;-62
2022/03/03 06:37:31;;;;;;;27.13;13.67;;;;;;;-2.80;90.11;98749.00;4973125;28;20670;-62
2022/03/03 06:39:58;;;;;;;26.27;12.63;;;;;;;-2.69;89.87;98741.72;4970899;28;20198;-62
2022/03/03 06:42:26;;;;;;;27.13;12.13;;;;;;;-2.70;90.03;98751.13;4962840;28;20248;-62
2022/03/03 06:44:54;;;;;;;24.80;12.03;;;;;;;-2.66;90.16;98749.25;4963441;28;20182;-61
2022/03/03 06:47:21;;;;;;;30.00;13.10;;;;;;;-2.64;89.81;98744.06;4964919;28;20190;-62
2022/03/03 06:49:48;;;;;;;26.63;12.50;;;;;;;-2.61;89.89;98749.06;4963537;28;20186;-61
2022/03/03 06:52:17;;;;;;;55.23;22.00;;;;;;;-2.56;89.78;98755.66;4963171;28;20706;-61
2022/03/03 06:54:46;;;;;;;36.40;16.77;;;;;;;-2.50;90.01;98749.44;4964364;28;20198;-61
2022/03/03 06:57:13;;;;;;;73.13;30.43;;;;;;;-2.52;89.73;98756.34;4963680;28;20221;-61
2022/03/03 06:59:40;;;;;;;38.63;16.67;;;;;;;-2.45;89.14;98752.63;4964911;28;20269;-61
2022/03/03 07:02:07;;;;;;;33.13;17.83;;;;;;;-2.37;88.09;98759.97;4968951;28;20837;-64
2022/03/03 07:04:34;;;;;;;33.33;15.60;;;;;;;-2.35;87.84;98763.31;4972096;28;20201;-64
2022/03/03 07:07:01;;;;;;;32.27;15.27;;;;;;;-2.33;87.92;98776.84;4973267;28;20179;-64
2022/03/03 07:09:30;;;;;;;28.67;15.00;;;;;;;-2.17;88.10;98784.69;4963844;28;20197;-64
2022/03/03 07:11:59;;;;;;;36.43;16.70;;;;;;;-2.12;87.55;98785.31;4962686;28;20319;-64
2022/03/03 07:14:26;;;;;;;34.40;18.70;;;;;;;-2.05;88.42;98779.94;4964367;28;20194;-64
2022/03/03 07:17:00;;;;;;;36.47;17.73;;;;;;;-2.09;87.65;98784.34;4963739;28;20194;-64
2022/03/03 07:19:40;;;;;;;36.70;18.20;;;;;;;-2.08;87.88;98780.88;4964365;28;20205;-64
2022/03/03 07:22:16;;;;;;;39.67;19.03;;;;;;;-2.05;87.92;98777.38;4964078;28;20224;-64
2022/03/03 07:24:45;;;;;;;43.50;19.23;;;;;;;-2.05;87.59;98774.81;4963927;28;20205;-64
2022/03/03 07:27:19;;;;;;;44.77;20.07;;;;;;;-2.01;87.83;98777.16;4963515;28;20198;-64
2022/03/03 07:29:50;;;;;;;36.27;18.73;;;;;;;-2.01;87.57;98766.94;4964388;28;20217;-64
2022/03/03 07:32:19;;;;;;;36.00;18.40;;;;;;;-1.95;87.56;98761.53;4963575;28;20242;-64
2022/03/03 07:34:52;;;;;;;39.70;19.17;;;;;;;-1.86;87.95;98752.63;4963806;28;20230;-65
2022/03/03 07:37:22;;;;;;;37.33;16.93;;;;;;;-1.92;87.86;98747.78;4963356;28;20255;-64
2022/03/03 07:39:49;;;;;;;40.17;18.87;;;;;;;-1.95;87.65;98738.50;4962723;28;20187;-64
2022/03/03 07:42:18;;;;;;;33.17;16.57;;;;;;;-1.92;87.90;98735.00;4962215;28;20736;-64
2022/03/03 07:44:45;;;;;;;32.00;14.70;;;;;;;-1.89;88.16;98734.88;4963458;28;20184;-64
2022/03/03 07:47:12;;;;;;;32.43;14.53;;;;;;;-1.81;88.47;98734.50;4963157;28;20194;-64
2022/03/03 07:49:40;;;;;;;30.30;14.30;;;;;;;-1.80;88.00;98728.50;4962065;28;20192;-64
2022/03/03 07:52:08;;;;;;;30.17;15.70;;;;;;;-1.73;87.97;98724.75;4963112;28;20290;-64
2022/03/03 07:54:35;;;;;;;30.77;15.57;;;;;;;-1.67;88.46;98719.34;4962669;28;20683;-64
2022/03/03 07:57:04;;;;;;;27.33;11.87;;;;;;;-1.62;87.58;98711.47;4967284;28;20613;-64
2022/03/03 07:59:35;;;;;;;23.67;11.10;;;;;;;-1.55;87.06;98723.06;4971678;28;20276;-65
2022/03/03 08:02:04;;;;;;;22.00;10.57;;;;;;;-1.49;87.04;98725.31;4971095;28;20223;-65
2022/03/03 08:04:33;;;;;;;26.83;12.13;;;;;;;-1.38;87.26;98721.44;4972622;28;20427;-65
2022/03/03 08:07:06;;;;;;;24.97;11.70;;;;;;;-1.31;86.73;98714.31;4973442;28;20190;-65
2022/03/03 08:09:34;;;;;;;26.80;13.10;;;;;;;-1.20;86.15;98724.88;4973456;28;20672;-65
2022/03/03 08:12:05;;;;;;;27.00;12.77;;;;;;;-1.13;85.50;98717.69;4972952;28;20215;-66
2022/03/03 08:14:33;;;;;;;23.50;11.43;;;;;;;-1.02;84.61;98712.88;4973044;28;20693;-65
2022/03/03 08:17:00;;;;;;;24.00;11.13;;;;;;;-0.88;84.22;98719.88;4973242;28;20186;-65
2022/03/03 08:19:28;;;;;;;26.33;12.20;;;;;;;-0.81;84.02;98723.81;4973192;28;20213;-64
2022/03/03 08:21:55;;;;;;;22.80;11.50;;;;;;;-0.67;83.67;98719.72;4972809;28;20193;-66
2022/03/03 08:24:22;;;;;;;27.77;11.30;;;;;;;-0.52;83.47;98725.78;4972591;28;20709;-65
2022/03/03 08:26:49;;;;;;;24.77;11.13;;;;;;;-0.36;82.89;98718.16;4973140;28;20270;-65
2022/03/03 08:29:15;;;;;;;23.63;12.27;;;;;;;-0.17;82.71;98726.56;4972961;28;20198;-64
2022/03/03 08:31:49;;;;;;;24.07;12.00;;;;;;;0.01;81.72;98721.34;4972076;28;20230;-64
2022/03/03 08:34:24;;;;;;;29.67;16.03;;;;;;;0.22;81.82;98724.53;4972106;28;20512;-64
2022/03/03 08:36:54;;;;;;;23.67;13.37;;;;;;;0.35;81.08;98726.44;4972861;28;20233;-64
2022/03/03 08:39:26;;;;;;;37.53;17.53;;;;;;;0.54;80.14;98723.66;4971492;28;20225;-64
2022/03/03 08:41:56;;;;;;;33.83;17.87;;;;;;;0.79;76.79;98722.31;4972604;28;20242;-65
2022/03/03 08:44:27;;;;;;;30.90;16.67;;;;;;;0.92;77.09;98727.56;4972558;28;20196;-65
2022/03/03 08:46:57;;;;;;;33.30;18.37;;;;;;;1.06;74.55;98719.91;4972727;28;20191;-64
2022/03/03 08:49:29;;;;;;;43.53;21.97;;;;;;;1.21;74.02;98717.38;4952498;28;20282;-64
2022/03/03 08:51:56;;;;;;;38.03;20.57;;;;;;;1.34;73.46;98718.31;4953038;28;20187;-64
2022/03/03 08:54:23;;;;;;;40.53;21.00;;;;;;;1.41;73.37;98722.19;4952804;28;20205;-65
2022/03/03 08:56:49;;;;;;;42.43;22.10;;;;;;;1.52;73.33;98726.69;4953254;28;20230;-64
2022/03/03 08:59:16;;;;;;;40.40;23.00;;;;;;;1.59;73.77;98722.00;4972211;28;20217;-64
2022/03/03 09:01:43;;;;;;;40.70;22.03;;;;;;;1.60;73.23;98729.63;4972253;28;20184;-65
2022/03/03 09:04:11;;;;;;;37.70;22.00;;;;;;;1.66;72.85;98731.00;4971909;28;20239;-65
2022/03/03 09:06:38;;;;;;;38.50;22.77;;;;;;;1.75;73.43;98735.59;4972366;28;20270;-65
2022/03/03 09:09:06;;;;;;;40.87;21.80;;;;;;;1.75;73.64;98734.78;4972093;28;20186;-65
2022/03/03 09:11:32;;;;;;;38.27;23.17;;;;;;;1.72;72.82;98746.06;4972242;28;20715;-64
2022/03/03 09:13:59;;;;;;;39.23;22.73;;;;;;;1.82;71.80;98748.94;4971727;28;20265;-64
2022/03/03 09:16:27;;;;;;;39.87;23.13;;;;;;;1.86;72.71;98750.41;4971957;28;20350;-65
2022/03/03 09:18:55;;;;;;;43.03;24.57;;;;;;;1.97;73.61;98757.47;4972279;28;20208;-64
2022/03/03 09:21:23;;;;;;;48.07;25.03;;;;;;;2.03;73.12;98762.25;4972277;28;20236;-65
2022/03/03 09:23:49;;;;;;;39.87;22.73;;;;;;;2.12;72.71;98771.16;4971915;28;20266;-64
2022/03/03 09:26:16;;;;;;;45.80;23.70;;;;;;;2.10;72.26;98760.16;4971834;28;20194;-65
2022/03/03 09:28:43;;;;;;;45.77;23.80;;;;;;;2.15;72.75;98755.50;4972048;28;20216;-66
2022/03/03 09:31:10;;;;;;;43.93;23.30;;;;;;;2.16;71.81;98749.44;4972066;28;20248;-65
2022/03/03 09:33:36;;;;;;;43.90;23.93;;;;;;;2.09;72.99;98743.03;4971770;28;20219;-66
2022/03/03 09:36:04;;;;;;;46.30;22.53;;;;;;;2.22;72.48;98746.50;4971644;28;20277;-66
2022/03/03 09:38:32;;;;;;;40.73;23.20;;;;;;;2.33;71.20;98747.56;4971920;28;20578;-66
2022/03/03 09:40:59;;;;;;;40.50;22.90;;;;;;;2.39;71.30;98747.19;4971310;28;20657;-66
2022/03/03 09:43:28;;;;;;;39.13;22.80;;;;;;;2.48;70.92;98756.94;4961562;28;20736;-65
2022/03/03 09:45:55;;;;;;;42.00;21.83;;;;;;;2.54;70.49;98754.88;4960838;28;20187;-66
2022/03/03 09:48:21;;;;;;;41.23;22.80;;;;;;;2.51;70.37;98755.94;4962029;28;20219;-65
2022/03/03 09:50:48;;;;;;;40.87;22.00;;;;;;;2.51;70.59;98750.78;4960668;28;20192;-66
2022/03/03 09:53:17;;;;;;;38.30;21.70;;;;;;;2.62;70.66;98752.66;4960018;28;20225;-67
2022/03/03 09:55:47;;;;;;;42.70;23.07;;;;;;;2.55;70.80;98741.09;4962112;28;20716;-66
2022/03/03 09:58:15;;;;;;;44.17;23.70;;;;;;;2.55;71.96;98746.25;4970588;28;20221;-65
2022/03/03 10:00:42;;;;;;;40.10;22.77;;;;;;;2.58;71.98;98735.72;4972777;28;20186;-66
2022/03/03 10:03:12;;;;;;;38.27;21.40;;;;;;;2.71;71.42;98738.34;4975480;28;20212;-66
2022/03/03 10:05:42;;;;;;;37.23;22.53;;;;;;;2.78;71.00;98739.59;4975270;28;20189;-67
2022/03/03 10:08:11;;;;;;;39.33;21.53;;;;;;;2.84;69.85;98738.41;4975650;28;20202;-66
2022/03/03 10:10:39;;;;;;;40.10;22.83;;;;;;;2.91;70.62;98743.06;4975585;28;20559;-67
2022/03/03 10:13:08;;;;;;;40.70;22.37;;;;;;;2.93;70.23;98741.19;4975319;28;20258;-65
2022/03/03 10:15:36;;;;;;;34.67;19.40;;;;;;;4.31;76.07;98736.31;4969772;28;20192;-49
2022/03/03 10:18:06;;;;;;;39.80;20.50;;;;;;;5.41;66.59;98748.28;4965454;28;20202;-50
2022/03/03 10:20:38;;;;;;;38.60;22.43;;;;;;;4.60;63.17;98759.28;4964195;28;20214;-67
2022/03/03 10:23:08;;;;;;;38.73;22.57;;;;;;;4.29;64.61;98746.75;4962813;28;20293;-67
2022/03/03 10:25:37;;;;;;;37.77;22.07;;;;;;;3.92;65.30;98741.56;4968558;28;20282;-67
2022/03/03 10:28:13;;;;;;;40.53;22.53;;;;;;;3.62;66.41;98742.72;4974681;28;20222;-66
2022/03/03 10:30:55;;;;;;;39.20;23.73;;;;;;;3.56;67.69;98747.50;4975244;28;20196;-66
2022/03/03 10:33:26;;;;;;;42.50;24.20;;;;;;;3.63;68.38;98744.38;4974854;28;20227;-66
2022/03/03 10:36:00;;;;;;;41.53;23.97;;;;;;;3.67;67.70;98739.84;4974869;28;20666;-67
2022/03/03 10:38:28;;;;;;;41.60;24.03;;;;;;;3.75;68.36;98737.53;4975092;28;20837;-66
2022/03/03 10:40:54;;;;;;;42.63;22.73;;;;;;;3.83;67.70;98734.47;4975232;28;20183;-66
2022/03/03 10:43:23;;;;;;;39.37;22.57;;;;;;;3.93;67.60;98730.31;4974762;28;20206;-67
2022/03/03 10:46:03;;;;;;;40.30;23.10;;;;;;;4.09;66.59;98731.84;4974468;28;20186;-67
2022/03/03 10:48:30;;;;;;;43.37;23.27;;;;;;;4.16;66.13;98737.38;4975015;28;20192;-67
2022/03/03 10:50:58;;;;;;;47.10;23.23;;;;;;;4.18;66.94;98732.94;4974930;28;20546;-66
2022/03/03 10:53:26;;;;;;;44.53;23.87;;;;;;;4.24;66.53;98735.09;4974482;28;20224;-66
2022/03/03 10:56:05;;;;;;;39.77;22.80;;;;;;;4.39;66.20;98731.44;4974428;28;20658;-66
2022/03/03 10:58:50;;;;;;;41.37;24.30;;;;;;;4.36;66.65;98736.81;4973061;28;20196;-66
2022/03/03 11:01:19;;;;;;;38.70;23.17;;;;;;;4.43;65.93;98739.78;4970190;28;20194;-66
2022/03/03 11:03:49;;;;;;;41.67;24.33;;;;;;;4.51;65.38;98736.66;4968420;28;20226;-66
2022/03/03 11:06:21;;;;;;;39.43;23.03;;;;;;;4.67;65.17;98734.63;4963418;28;20302;-66
2022/03/03 11:08:49;;;;;;;42.37;24.33;;;;;;;4.77;64.83;98741.75;4964389;28;20190;-66
2022/03/03 11:11:17;;;;;;;38.47;22.70;;;;;;;4.77;64.05;98729.63;4963522;28;20199;-66
2022/03/03 11:13:47;;;;;;;40.87;23.67;;;;;;;4.87;64.60;98737.53;4969294;28;20214;-66
2022/03/03 11:16:16;;;;;;;44.23;23.63;;;;;;;4.92;64.70;98729.44;4967385;28;20190;-66
2022/03/03 11:18:43;;;;;;;44.97;24.37;;;;;;;4.98;63.74;98736.75;4965144;28;20186;-67
2022/03/03 11:21:10;;;;;;;46.87;24.93;;;;;;;5.01;62.81;98721.81;4966386;28;20194;-66
2022/03/03 11:23:40;;;;;;;43.60;23.90;;;;;;;5.07;63.67;98719.72;4972791;28;20214;-64